Time;durP1;ratioP1;P1;durP2;ratioP2;P2;SDS_P1;SDS_P2;PMS_P1;PMS_P2;Temp;Humidity;BMP_temperature;BMP_pressure;BME280_temperature;BME280_humidity;BME280_pressure;Samples;Min_cycle;Max_cycle;Signal;HPM_P1;HPM_P2
2021/07/08 00:01:18;;;;;;;;;;;;;;;20.23;75.20;101401.84;5113390;28;19931;-71
2021/07/08 00:03:45;;;;;;;;;;;;;;;20.20;75.12;101403.94;5113198;28;19982;-72
2021/07/08 00:06:11;;;;;;;;;;;;;;;20.29;75.50;101405.78;5113004;28;20461;-72
2021/07/08 00:08:38;;;;;;;;;;;;;;;20.25;75.38;101404.38;5113087;28;19924;-73
2021/07/08 00:11:06;;;;;;;;;;;;;;;20.33;74.62;101409.00;5113007;28;19948;-71
2021/07/08 00:13:33;;;;;;;;;;;;;;;20.30;75.37;101404.00;5112958;28;19923;-71
2021/07/08 00:15:59;;;;;;;;;;;;;;;20.33;75.47;101398.44;5113003;28;19924;-71
2021/07/08 00:18:28;;;;;;;;;;;;;;;20.34;75.78;101402.75;5112417;28;20314;-71
2021/07/08 00:20:54;;;;;;;;;;;;;;;20.19;78.70;101389.91;5112686;28;19924;-72
2021/07/08 00:23:21;;;;;;;;;;;;;;;20.06;79.11;101394.53;5112840;28;19924;-72
2021/07/08 00:25:51;;;;;;;;;;;;;;;20.10;78.89;101392.47;5112870;28;20018;-72
2021/07/08 00:28:19;;;;;;;;;;;;;;;20.42;76.83;101387.06;5113128;28;19923;-72
2021/07/08 00:30:47;;;;;;;;;;;;;;;20.34;77.66;101393.00;5112899;28;19928;-72
2021/07/08 00:33:14;;;;;;;;;;;;;;;20.55;75.99;101392.16;5113075;28;19930;-71
2021/07/08 00:35:40;;;;;;;;;;;;;;;20.54;76.12;101395.72;5112926;28;19930;-71
2021/07/08 00:38:07;;;;;;;;;;;;;;;20.48;76.21;101389.19;5113065;28;19930;-71
2021/07/08 00:40:34;;;;;;;;;;;;;;;20.54;76.99;101390.44;5112852;28;19930;-72
2021/07/08 00:43:01;;;;;;;;;;;;;;;20.55;75.77;101393.00;5112486;28;19924;-72
2021/07/08 00:45:29;;;;;;;;;;;;;;;20.54;76.70;101395.72;5112629;28;19923;-71
2021/07/08 00:47:55;;;;;;;;;;;;;;;20.46;76.44;101393.75;5112794;28;19924;-71
2021/07/08 00:50:23;;;;;;;;;;;;;;;20.45;76.53;101400.03;5112943;28;19930;-72
2021/07/08 00:52:50;;;;;;;;;;;;;;;20.41;77.20;101403.88;5112823;28;19923;-71
2021/07/08 00:55:16;;;;;;;;;;;;;;;20.39;77.94;101403.19;5112414;28;20382;-72
2021/07/08 00:57:52;;;;;;;;;;;;;;;20.49;77.27;101404.06;5112369;28;20301;-72
2021/07/08 01:00:18;;;;;;;;;;;;;;;20.42;77.45;101400.25;5112527;28;20400;-72
2021/07/08 01:02:47;;;;;;;;;;;;;;;20.43;76.99;101392.22;5112352;28;19931;-72
2021/07/08 01:05:16;;;;;;;;;;;;;;;20.21;80.79;101397.69;5112552;28;19924;-72
2021/07/08 01:07:43;;;;;;;;;;;;;;;20.40;78.69;101391.66;5112579;28;19924;-72
2021/07/08 01:10:10;;;;;;;;;;;;;;;20.38;79.45;101389.13;5112848;28;20014;-72
2021/07/08 01:12:37;;;;;;;;;;;;;;;20.47;79.74;101391.94;5112721;28;19964;-73
2021/07/08 01:15:05;;;;;;;;;;;;;;;20.51;79.47;101388.06;5112449;28;19924;-72
2021/07/08 01:17:32;;;;;;;;;;;;;;;20.53;78.26;101375.56;5112717;28;19923;-72
2021/07/08 01:20:00;;;;;;;;;;;;;;;20.59;78.23;101380.34;5112088;28;19930;-72
2021/07/08 01:22:28;;;;;;;;;;;;;;;20.61;78.11;101379.25;5112310;28;19928;-72
2021/07/08 01:24:55;;;;;;;;;;;;;;;20.61;76.97;101384.53;5112427;28;19928;-72
2021/07/08 01:27:21;;;;;;;;;;;;;;;20.56;76.60;101381.44;5112345;28;19924;-72
2021/07/08 01:29:48;;;;;;;;;;;;;;;20.53;75.78;101381.69;5112319;28;19924;-73
2021/07/08 01:32:15;;;;;;;;;;;;;;;20.48;75.90;101391.81;5114992;28;19931;-72
2021/07/08 01:34:41;;;;;;;;;;;;;;;20.39;75.11;101387.31;5115850;28;19930;-71
2021/07/08 01:37:08;;;;;;;;;;;;;;;20.38;75.86;101375.09;5116109;28;19924;-71
2021/07/08 01:39:36;;;;;;;;;;;;;;;20.32;76.03;101376.47;5115907;28;19930;-71
2021/07/08 01:42:03;;;;;;;;;;;;;;;20.36;76.59;101377.03;5115558;28;20294;-71
2021/07/08 01:44:29;;;;;;;;;;;;;;;20.34;76.22;101379.78;5116018;28;19924;-71
2021/07/08 01:46:56;;;;;;;;;;;;;;;20.30;75.82;101372.28;5115323;28;19931;-72
2021/07/08 01:49:24;;;;;;;;;;;;;;;20.37;76.45;101383.97;5115899;28;19930;-71
2021/07/08 01:51:51;;;;;;;;;;;;;;;20.40;75.28;101381.09;5115361;28;19967;-71
2021/07/08 01:54:19;;;;;;;;;;;;;;;20.37;75.80;101381.34;5115481;28;19930;-73
2021/07/08 01:56:47;;;;;;;;;;;;;;;20.36;74.71;101382.31;5115240;28;20449;-73
2021/07/08 01:59:14;;;;;;;;;;;;;;;20.42;76.00;101385.28;5115502;28;20317;-73
2021/07/08 02:01:41;;;;;;;;;;;;;;;20.35;75.82;101373.56;5115354;28;19931;-72
2021/07/08 02:04:07;;;;;;;;;;;;;;;20.22;74.70;101389.63;5115422;28;20354;-71
2021/07/08 02:06:34;;;;;;;;;;;;;;;20.11;75.49;101389.69;5115645;28;19924;-71
2021/07/08 02:09:01;;;;;;;;;;;;;;;20.15;76.67;101396.41;5115493;28;19931;-71
2021/07/08 02:11:27;;;;;;;;;;;;;;;20.07;76.14;101390.94;5115520;28;20299;-71
2021/07/08 02:13:55;;;;;;;;;;;;;;;20.08;76.40;101392.59;5115265;28;19924;-71
2021/07/08 02:16:22;;;;;;;;;;;;;;;19.97;76.47;101384.75;5115427;28;19955;-71
2021/07/08 02:18:48;;;;;;;;;;;;;;;19.96;76.44;101383.06;5114840;28;19930;-71
2021/07/08 02:21:15;;;;;;;;;;;;;;;19.93;76.85;101372.78;5114941;28;20370;-71
2021/07/08 02:23:42;;;;;;;;;;;;;;;19.87;76.32;101378.59;5114973;27;19932;-72
2021/07/08 02:26:09;;;;;;;;;;;;;;;19.93;76.44;101380.69;5115063;28;19924;-71
2021/07/08 02:28:36;;;;;;;;;;;;;;;19.81;77.12;101387.88;5114830;28;20387;-71
2021/07/08 02:31:05;;;;;;;;;;;;;;;19.89;77.09;101382.78;5114884;28;20646;-71
2021/07/08 02:33:32;;;;;;;;;;;;;;;19.90;77.14;101375.69;5115108;28;19923;-71
2021/07/08 02:35:59;;;;;;;;;;;;;;;19.90;77.08;101378.31;5114707;28;19924;-71
2021/07/08 02:38:25;;;;;;;;;;;;;;;19.88;77.58;101375.78;5114856;28;20389;-71
2021/07/08 02:40:52;;;;;;;;;;;;;;;19.89;76.91;101376.66;5114627;27;19924;-71
2021/07/08 02:43:19;;;;;;;;;;;;;;;19.97;77.07;101374.19;5114363;28;19930;-71
2021/07/08 02:45:46;;;;;;;;;;;;;;;20.04;76.51;101369.22;5114539;28;20401;-71
2021/07/08 02:48:15;;;;;;;;;;;;;;;20.04;75.73;101372.72;5114597;28;19930;-71
2021/07/08 02:50:43;;;;;;;;;;;;;;;20.17;76.90;101361.94;5115000;28;20504;-71
2021/07/08 02:53:10;;;;;;;;;;;;;;;20.15;77.02;101355.94;5114397;28;19924;-71
2021/07/08 02:55:37;;;;;;;;;;;;;;;20.22;76.60;101367.66;5114274;28;19927;-71
2021/07/08 02:58:04;;;;;;;;;;;;;;;20.36;75.99;101361.16;5114351;28;19924;-71
2021/07/08 03:00:32;;;;;;;;;;;;;;;20.20;76.41;101362.50;5114467;28;19924;-71
2021/07/08 03:02:58;;;;;;;;;;;;;;;20.13;77.59;101365.78;5113897;28;19924;-71
2021/07/08 03:05:27;;;;;;;;;;;;;;;20.04;77.29;101366.56;5114444;28;19928;-71
2021/07/08 03:07:55;;;;;;;;;;;;;;;20.01;78.25;101365.88;5113870;28;20301;-71
2021/07/08 03:10:23;;;;;;;;;;;;;;;19.94;77.11;101362.09;5114176;28;19930;-71
2021/07/08 03:12:50;;;;;;;;;;;;;;;19.88;77.08;101357.31;5114041;28;19930;-71
2021/07/08 03:15:17;;;;;;;;;;;;;;;19.84;78.26;101368.28;5113816;28;19924;-71
2021/07/08 03:17:44;;;;;;;;;;;;;;;19.89;79.01;101348.44;5113913;28;19928;-71
2021/07/08 03:20:12;;;;;;;;;;;;;;;19.92;78.10;101348.19;5113817;28;19924;-71
2021/07/08 03:22:40;;;;;;;;;;;;;;;19.87;77.49;101352.19;5113754;28;19973;-71
2021/07/08 03:25:08;;;;;;;;;;;;;;;19.96;78.80;101356.66;5113848;28;19928;-71
2021/07/08 03:27:34;;;;;;;;;;;;;;;20.05;78.68;101353.25;5113632;28;19938;-72
2021/07/08 03:30:01;;;;;;;;;;;;;;;20.10;77.49;101363.44;5113457;28;20416;-73
2021/07/08 03:32:28;;;;;;;;;;;;;;;20.07;78.05;101358.41;5113882;28;19935;-71
2021/07/08 03:34:54;;;;;;;;;;;;;;;20.11;78.47;101363.28;5113276;28;20289;-72
2021/07/08 03:37:21;;;;;;;;;;;;;;;20.16;76.92;101358.44;5113864;28;19924;-71
2021/07/08 03:39:49;;;;;;;;;;;;;;;20.15;77.56;101359.41;5113263;28;19934;-71
2021/07/08 03:42:16;;;;;;;;;;;;;;;20.12;76.75;101359.69;5113457;28;20412;-72
2021/07/08 03:44:42;;;;;;;;;;;;;;;20.18;77.48;101359.16;5113928;28;19930;-71
2021/07/08 03:47:09;;;;;;;;;;;;;;;20.26;77.90;101352.38;5113311;28;20389;-70
2021/07/08 03:49:36;;;;;;;;;;;;;;;20.35;77.36;101344.50;5113311;28;19924;-72
2021/07/08 03:52:03;;;;;;;;;;;;;;;20.38;78.21;101346.84;5112975;28;20297;-71
2021/07/08 03:54:29;;;;;;;;;;;;;;;20.44;77.86;101346.31;5112281;28;20289;-70
2021/07/08 03:56:57;;;;;;;;;;;;;;;20.44;77.42;101348.13;5112996;28;20374;-70
2021/07/08 03:59:24;;;;;;;;;;;;;;;20.56;77.36;101335.69;5113176;28;20389;-70
2021/07/08 04:01:51;;;;;;;;;;;;;;;20.56;76.28;101338.31;5113247;28;19931;-70
2021/07/08 04:04:17;;;;;;;;;;;;;;;20.62;76.53;101333.31;5113489;28;19924;-73
2021/07/08 04:06:44;;;;;;;;;;;;;;;20.61;77.16;101347.50;5112920;28;20487;-72
2021/07/08 04:09:10;;;;;;;;;;;;;;;20.43;76.69;101344.66;5113405;28;19924;-72
2021/07/08 04:11:37;;;;;;;;;;;;;;;20.38;77.08;101346.03;5113364;28;19924;-72
2021/07/08 04:14:05;;;;;;;;;;;;;;;20.41;77.69;101343.09;5112699;28;20377;-72
2021/07/08 04:16:32;;;;;;;;;;;;;;;20.47;76.58;101345.19;5113227;28;20077;-72
2021/07/08 04:18:58;;;;;;;;;;;;;;;20.49;77.76;101353.00;5113150;28;19923;-72
2021/07/08 04:21:25;;;;;;;;;;;;;;;20.40;77.08;101349.38;5113273;28;19946;-71
2021/07/08 04:23:52;;;;;;;;;;;;;;;20.45;77.61;101347.16;5112702;28;19924;-70
2021/07/08 04:26:19;;;;;;;;;;;;;;;20.41;77.24;101351.03;5113019;28;19928;-72
2021/07/08 04:28:45;;;;;;;;;;;;;;;20.39;77.03;101353.81;5112607;28;19973;-70
2021/07/08 04:31:16;;;;;;;;;;;;;;;20.37;76.15;101347.84;5113071;28;19924;-70
2021/07/08 04:33:43;;;;;;;;;;;;;;;20.12;77.22;101348.28;5112850;28;19924;-70
2021/07/08 04:36:11;;;;;;;;;;;;;;;20.04;78.31;101348.94;5112844;28;19931;-71
2021/07/08 04:38:38;;;;;;;;;;;;;;;20.01;78.69;101359.75;5112781;28;19928;-70
2021/07/08 04:41:05;;;;;;;;;;;;;;;19.95;78.10;101360.28;5112855;28;19924;-72
2021/07/08 04:43:32;;;;;;;;;;;;;;;20.01;78.31;101357.97;5113059;28;20018;-72
2021/07/08 04:45:58;;;;;;;;;;;;;;;19.99;79.13;101362.53;5112312;28;19928;-72
2021/07/08 04:48:26;;;;;;;;;;;;;;;19.99;78.56;101364.34;5112725;28;19924;-72
2021/07/08 04:50:53;;;;;;;;;;;;;;;19.93;78.70;101363.03;5112782;28;19924;-70
2021/07/08 04:53:19;;;;;;;;;;;;;;;19.85;78.09;101360.22;5112772;28;19931;-72
2021/07/08 04:55:47;;;;;;;;;;;;;;;19.72;78.50;101362.22;5112385;28;19930;-72
2021/07/08 04:58:13;;;;;;;;;;;;;;;19.71;79.33;101369.31;5112793;28;19923;-70
2021/07/08 05:00:40;;;;;;;;;;;;;;;19.74;78.54;101374.34;5112508;28;20506;-69
2021/07/08 05:03:07;;;;;;;;;;;;;;;19.78;78.64;101357.28;5112513;28;19923;-69
2021/07/08 05:05:35;;;;;;;;;;;;;;;19.85;78.90;101372.59;5114186;28;19931;-70
2021/07/08 05:08:02;;;;;;;;;;;;;;;19.92;78.66;101371.13;5116317;28;19923;-70
2021/07/08 05:10:28;;;;;;;;;;;;;;;20.01;78.01;101384.38;5116267;28;19940;-69
2021/07/08 05:12:55;;;;;;;;;;;;;;;20.03;77.86;101386.88;5116204;28;19976;-70
2021/07/08 05:15:21;;;;;;;;;;;;;;;19.90;77.65;101375.69;5116411;27;19924;-70
2021/07/08 05:17:48;;;;;;;;;;;;;;;19.97;77.46;101382.13;5115814;28;19924;-69
2021/07/08 05:20:16;;;;;;;;;;;;;;;20.13;77.76;101379.84;5116436;28;19924;-69
2021/07/08 05:22:45;;;;;;;;;;;;;;;19.91;77.45;101395.81;5115644;28;20022;-69
2021/07/08 05:25:14;;;;;;;;;;;;;;;20.02;77.88;101382.56;5116054;28;19930;-70
2021/07/08 05:27:41;;;;;;;;;;;;;;;19.98;77.83;101384.63;5115878;28;20325;-70
2021/07/08 05:30:08;;;;;;;;;;;;;;;20.15;77.55;101391.13;5116357;28;19923;-70
2021/07/08 05:32:35;;;;;;;;;;;;;;;20.20;77.84;101404.78;5115846;28;20286;-69
2021/07/08 05:35:01;;;;;;;;;;;;;;;20.10;78.29;101405.69;5115919;28;20381;-71
2021/07/08 05:37:28;;;;;;;;;;;;;;;20.13;78.52;101406.25;5116125;28;19930;-70
2021/07/08 05:39:56;;;;;;;;;;;;;;;20.13;78.91;101400.97;5115506;28;20374;-70
2021/07/08 05:42:23;;;;;;;;;;;;;;;19.95;79.54;101391.97;5115658;28;20386;-71
2021/07/08 05:44:49;;;;;;;;;;;;;;;19.76;79.65;101390.88;5115494;28;19949;-71
2021/07/08 05:47:16;;;;;;;;;;;;;;;19.93;79.46;101394.72;5115965;28;19955;-71
2021/07/08 05:49:43;;;;;;;;;;;;;;;19.91;79.00;101393.19;5115343;28;19969;-69
2021/07/08 05:52:10;;;;;;;;;;;;;;;20.17;78.63;101388.34;5115729;28;19923;-69
2021/07/08 05:54:36;;;;;;;;;;;;;;;20.57;77.05;101388.41;5115188;28;20378;-69
2021/07/08 05:57:05;;;;;;;;;;;;;;;20.84;75.11;101381.66;5115312;28;19934;-69
2021/07/08 05:59:31;;;;;;;;;;;;;;;21.17;73.65;101380.47;5115617;28;19924;-69
2021/07/08 06:01:58;;;;;;;;;;;;;;;21.26;71.91;101378.78;5115244;28;19924;-69
2021/07/08 06:04:25;;;;;;;;;;;;;;;21.64;72.15;101382.44;5115170;28;20408;-69
2021/07/08 06:06:51;;;;;;;;;;;;;;;21.66;70.89;101386.63;5114894;28;20294;-70
2021/07/08 06:09:18;;;;;;;;;;;;;;;21.68;69.46;101386.44;5115146;28;19923;-70
2021/07/08 06:11:44;;;;;;;;;;;;;;;21.40;71.00;101386.34;5115003;28;20014;-70
2021/07/08 06:14:12;;;;;;;;;;;;;;;21.17;69.84;101374.31;5115149;28;19924;-70
2021/07/08 06:16:39;;;;;;;;;;;;;;;21.10;71.29;101382.81;5113895;28;19928;-69
2021/07/08 06:19:05;;;;;;;;;;;;;;;21.31;70.90;101387.97;5115034;28;19947;-69
2021/07/08 06:21:32;;;;;;;;;;;;;;;21.44;69.55;101381.59;5114955;28;19924;-69
2021/07/08 06:23:59;;;;;;;;;;;;;;;21.55;68.51;101385.91;5115020;28;19928;-70
2021/07/08 06:26:25;;;;;;;;;;;;;;;22.33;66.93;101389.25;5114936;28;19930;-69
2021/07/08 06:28:52;;;;;;;;;;;;;;;22.33;66.59;101386.63;5114533;28;19923;-70
2021/07/08 06:31:20;;;;;;;;;;;;;;;22.12;66.71;101387.63;5114590;28;20304;-69
2021/07/08 06:33:47;;;;;;;;;;;;;;;21.86;68.48;101384.78;5114736;28;19961;-69
2021/07/08 06:36:13;;;;;;;;;;;;;;;21.39;66.80;101384.66;5114540;28;19931;-71
2021/07/08 06:38:40;;;;;;;;;;;;;;;21.17;67.54;101385.75;5114432;28;19924;-70
2021/07/08 06:41:06;;;;;;;;;;;;;;;21.19;68.57;101383.78;5114256;28;20385;-69
2021/07/08 06:43:33;;;;;;;;;;;;;;;21.29;69.62;101394.38;5115091;28;19924;-71
2021/07/08 06:45:59;;;;;;;;;;;;;;;21.51;68.16;101395.97;5114382;28;19931;-70
2021/07/08 06:48:27;;;;;;;;;;;;;;;21.62;67.99;101393.16;5114718;28;19924;-71
2021/07/08 06:50:54;;;;;;;;;;;;;;;21.72;68.03;101388.69;5114466;28;19924;-71
2021/07/08 06:53:21;;;;;;;;;;;;;;;22.09;67.91;101389.72;5114243;28;19931;-70
2021/07/08 06:55:48;;;;;;;;;;;;;;;22.52;65.25;101385.69;5113680;28;19930;-70
2021/07/08 06:58:14;;;;;;;;;;;;;;;22.42;64.94;101388.38;5114184;28;19923;-71
2021/07/08 07:00:42;;;;;;;;;;;;;;;22.54;63.80;101397.81;5114410;28;19924;-70
2021/07/08 07:03:08;;;;;;;;;;;;;;;22.78;61.74;101394.59;5114197;28;20294;-71
2021/07/08 07:05:36;;;;;;;;;;;;;;;22.77;60.75;101398.25;5114354;28;19930;-70
2021/07/08 07:08:03;;;;;;;;;;;;;;;22.54;61.83;101395.16;5113983;28;19928;-70
2021/07/08 07:10:30;;;;;;;;;;;;;;;23.35;59.96;101399.72;5114179;27;19934;-70
2021/07/08 07:12:59;;;;;;;;;;;;;;;23.54;61.67;101393.38;5113966;28;19955;-69
2021/07/08 07:15:26;;;;;;;;;;;;;;;23.70;61.29;101396.16;5113751;28;19924;-70
2021/07/08 07:17:53;;;;;;;;;;;;;;;24.63;59.63;101389.41;5105945;28;19923;-70
2021/07/08 07:20:21;;;;;;;;;;;;;;;24.58;59.66;101386.41;5097423;28;19934;-71
2021/07/08 07:22:49;;;;;;;;;;;;;;;23.26;62.81;101390.00;5113148;28;19930;-69
2021/07/08 07:25:16;;;;;;;;;;;;;;;24.15;61.13;101390.81;5112460;28;19924;-70
2021/07/08 07:27:45;;;;;;;;;;;;;;;24.59;60.58;101383.59;5113772;28;19931;-70
2021/07/08 07:30:12;;;;;;;;;;;;;;;24.64;58.30;101394.59;5113367;28;20018;-70
2021/07/08 07:32:39;;;;;;;;;;;;;;;24.68;58.82;101395.91;5113280;28;20386;-70
2021/07/08 07:35:06;;;;;;;;;;;;;;;25.39;58.18;101388.44;5113531;28;19923;-72
2021/07/08 07:37:32;;;;;;;;;;;;;;;25.26;55.62;101388.09;5113886;28;19981;-73
2021/07/08 07:40:00;;;;;;;;;;;;;;;26.07;54.86;101389.88;5113239;28;20285;-69
2021/07/08 07:42:27;;;;;;;;;;;;;;;26.55;54.77;101390.75;5113668;28;19931;-69
2021/07/08 07:44:53;;;;;;;;;;;;;;;25.48;55.99;101383.94;5112953;28;19924;-70
2021/07/08 07:47:20;;;;;;;;;;;;;;;25.48;55.47;101389.25;5112456;28;19934;-69
2021/07/08 07:49:47;;;;;;;;;;;;;;;23.63;60.15;101392.44;5112127;28;19930;-70
2021/07/08 07:52:13;;;;;;;;;;;;;;;23.42;61.20;101399.91;5112309;28;20267;-70
2021/07/08 07:54:40;;;;;;;;;;;;;;;24.29;58.69;101407.03;5112892;28;19928;-70
2021/07/08 07:57:09;;;;;;;;;;;;;;;25.73;55.18;101387.41;5112745;28;19923;-72
2021/07/08 07:59:38;;;;;;;;;;;;;;;26.45;56.42;101400.75;5112399;28;21384;-70
2021/07/08 08:02:09;;;;;;;;;;;;;;;27.11;51.80;101385.25;5112789;28;19931;-70
2021/07/08 08:04:42;;;;;;;;;;;;;;;27.25;51.04;101381.81;5113216;28;19984;-71
2021/07/08 08:09:52;;;;;;;;;;;;;;;28.62;49.97;101393.16;5112984;28;20443;-69
2021/07/08 08:12:20;;;;;;;;;;;;;;;28.90;47.82;101389.75;5113425;28;19924;-69
2021/07/08 08:14:47;;;;;;;;;;;;;;;29.26;45.92;101387.06;5113114;28;19924;-69
2021/07/08 08:17:14;;;;;;;;;;;;;;;27.54;52.97;101393.59;5112812;28;19937;-70
2021/07/08 08:19:41;;;;;;;;;;;;;;;26.55;54.82;101393.41;5113495;28;19924;-69
2021/07/08 08:22:10;;;;;;;;;;;;;;;25.83;57.00;101388.91;5112625;28;19924;-69
2021/07/08 08:24:37;;;;;;;;;;;;;;;26.51;56.87;101397.38;5113177;28;19928;-70
2021/07/08 08:27:04;;;;;;;;;;;;;;;26.31;55.58;101390.78;5112612;28;19935;-69
2021/07/08 08:29:32;;;;;;;;;;;;;;;25.43;58.13;101403.06;5112850;28;19934;-69
2021/07/08 08:31:58;;;;;;;;;;;;;;;25.89;57.63;101398.06;5112651;28;20297;-69
2021/07/08 08:34:25;;;;;;;;;;;;;;;27.89;53.17;101396.66;5113106;28;19924;-69
2021/07/08 08:36:51;;;;;;;;;;;;;;;28.94;51.09;101407.09;5112488;28;19924;-69
2021/07/08 08:39:18;;;;;;;;;;;;;;;27.63;52.03;101407.75;5112899;28;20285;-69
2021/07/08 08:41:45;;;;;;;;;;;;;;;27.32;52.43;101409.50;5116732;28;20033;-69
2021/07/08 08:44:11;;;;;;;;;;;;;;;24.77;58.51;101415.41;5116975;28;19924;-69
2021/07/08 08:46:39;;;;;;;;;;;;;;;23.93;60.88;101421.44;5116900;28;19930;-68
2021/07/08 08:49:06;;;;;;;;;;;;;;;23.51;61.24;101420.25;5116917;28;19924;-68
2021/07/08 08:51:33;;;;;;;;;;;;;;;25.16;57.22;101415.72;5116701;28;19924;-69
2021/07/08 08:54:00;;;;;;;;;;;;;;;25.89;53.44;101415.91;5116585;28;19932;-68
2021/07/08 08:56:27;;;;;;;;;;;;;;;24.89;55.71;101408.81;5116720;28;20370;-69
2021/07/08 08:58:54;;;;;;;;;;;;;;;25.32;55.70;101408.75;5116911;28;20011;-69
2021/07/08 09:01:20;;;;;;;;;;;;;;;24.19;57.53;101408.97;5116538;28;19928;-69
2021/07/08 09:03:48;;;;;;;;;;;;;;;24.74;57.00;101402.44;5116277;28;19930;-69
2021/07/08 09:06:16;;;;;;;;;;;;;;;24.02;58.56;101409.84;5116395;28;19934;-68
2021/07/08 09:08:44;;;;;;;;;;;;;;;24.72;56.41;101407.09;5116310;28;19931;-70
2021/07/08 09:11:13;;;;;;;;;;;;;;;24.43;57.89;101412.75;5116696;28;19935;-69
2021/07/08 09:13:47;;;;;;;;;;;;;;;24.55;56.58;101409.66;5116690;28;19924;-70
2021/07/08 09:16:14;;;;;;;;;;;;;;;23.13;60.22;101403.63;5116390;28;19924;-69
2021/07/08 09:18:41;;;;;;;;;;;;;;;22.87;63.04;101408.81;5116470;28;19934;-69
2021/07/08 09:21:16;;;;;;;;;;;;;;;22.89;62.56;101406.84;5116309;28;19930;-69
2021/07/08 09:23:57;;;;;;;;;;;;;;;22.66;63.57;101401.13;5116393;28;19985;-69
2021/07/08 09:26:24;;;;;;;;;;;;;;;22.43;65.50;101403.31;5116096;28;19923;-69
2021/07/08 09:29:01;;;;;;;;;;;;;;;22.52;63.77;101404.25;5116068;28;19931;-69
2021/07/08 09:31:28;;;;;;;;;;;;;;;22.90;63.34;101407.69;5116286;28;19924;-69
2021/07/08 09:33:54;;;;;;;;;;;;;;;24.07;59.89;101412.88;5115773;28;19924;-69
2021/07/08 09:36:22;;;;;;;;;;;;;;;26.78;52.86;101397.97;5116089;28;19940;-69
2021/07/08 09:38:49;;;;;;;;;;;;;;;27.25;49.94;101391.69;5116051;28;19924;-70
2021/07/08 09:41:18;;;;;;;;;;;;;;;27.08;50.27;101410.47;5116026;28;19931;-69
2021/07/08 09:43:45;;;;;;;;;;;;;;;26.88;50.66;101404.75;5115496;28;19924;-69
2021/07/08 09:46:12;;;;;;;;;;;;;;;28.53;48.04;101412.19;5115560;28;20289;-70
2021/07/08 09:48:39;;;;;;;;;;;;;;;29.18;45.49;101415.81;5115933;28;19930;-69
2021/07/08 09:51:07;;;;;;;;;;;;;;;28.30;49.04;101413.09;5114883;28;20362;-69
2021/07/08 09:53:48;;;;;;;;;;;;;;;29.64;46.30;101404.66;5115259;28;19931;-69
2021/07/08 09:56:38;;;;;;;;;;;;;;;30.06;46.44;101411.00;5115565;28;19923;-70
2021/07/08 09:59:05;;;;;;;;;;;;;;;27.44;50.55;101417.94;5115447;28;19923;-71
2021/07/08 10:01:32;;;;;;;;;;;;;;;28.20;48.97;101424.06;5115356;28;19924;-70
2021/07/08 10:03:59;;;;;;;;;;;;;;;27.18;50.34;101420.09;5115432;28;19947;-70
2021/07/08 10:06:27;;;;;;;;;;;;;;;25.05;56.65;101421.31;5115617;28;19923;-70
2021/07/08 10:08:55;;;;;;;;;;;;;;;27.71;49.93;101424.53;5115091;28;19947;-69
2021/07/08 10:11:22;;;;;;;;;;;;;;;27.97;49.95;101425.97;5115402;28;19935;-69
2021/07/08 10:13:48;;;;;;;;;;;;;;;27.27;50.34;101419.06;5115381;28;19924;-69
2021/07/08 10:16:17;;;;;;;;;;;;;;;27.24;50.97;101417.56;5114913;28;19924;-69
2021/07/08 10:18:44;;;;;;;;;;;;;;;28.02;49.71;101429.75;5115140;28;19966;-68
2021/07/08 10:21:12;;;;;;;;;;;;;;;30.11;45.69;101422.78;5115198;28;19935;-68
2021/07/08 10:23:39;;;;;;;;;;;;;;;28.95;47.98;101427.50;5115271;28;19924;-69
2021/07/08 10:26:08;;;;;;;;;;;;;;;27.89;50.15;101434.09;5115026;28;19931;-68
2021/07/08 10:28:36;;;;;;;;;;;;;;;28.97;47.52;101430.81;5115118;28;19924;-70
2021/07/08 10:31:03;;;;;;;;;;;;;;;28.83;46.61;101429.84;5114635;28;20521;-70
2021/07/08 10:33:30;;;;;;;;;;;;;;;27.89;47.13;101436.78;5114782;28;20289;-70
2021/07/08 10:35:57;;;;;;;;;;;;;;;28.94;44.58;101436.56;5114491;28;20377;-69
2021/07/08 10:38:33;;;;;;;;;;;;;;;28.71;45.77;101434.03;5114986;28;19931;-69
2021/07/08 10:41:01;;;;;;;;;;;;;;;29.89;41.85;101439.97;5114731;28;19924;-69
2021/07/08 10:43:36;;;;;;;;;;;;;;;30.98;39.89;101445.53;5114552;28;20392;-71
2021/07/08 10:46:03;;;;;;;;;;;;;;;29.94;39.50;101438.34;5114599;28;19932;-70
2021/07/08 10:48:40;;;;;;;;;;;;;;;28.40;42.05;101445.75;5114842;28;20053;-70
2021/07/08 10:51:07;;;;;;;;;;;;;;;28.99;41.11;101449.38;5114434;28;19924;-70
2021/07/08 10:53:34;;;;;;;;;;;;;;;29.70;39.80;101445.00;5114737;28;19931;-69
2021/07/08 10:56:02;;;;;;;;;;;;;;;29.36;39.13;101455.56;5113887;28;19924;-69
2021/07/08 10:58:41;;;;;;;;;;;;;;;29.59;37.70;101453.50;5114265;28;19931;-70
2021/07/08 11:01:09;;;;;;;;;;;;;;;29.44;37.88;101461.66;5114287;28;19973;-71
2021/07/08 11:03:40;;;;;;;;;;;;;;;30.47;35.65;101474.59;5113962;28;19924;-69
2021/07/08 11:06:17;;;;;;;;;;;;;;;29.73;36.26;101463.38;5114229;28;19931;-69
2021/07/08 11:08:59;;;;;;;;;;;;;;;30.56;36.27;101474.25;5114151;28;19924;-70
2021/07/08 11:11:44;;;;;;;;;;;;;;;29.98;36.67;101476.38;5111989;28;19924;-69
2021/07/08 11:14:26;;;;;;;;;;;;;;;30.35;36.04;101477.03;5114074;28;19924;-69
2021/07/08 11:16:58;;;;;;;;;;;;;;;30.05;36.83;101474.53;5111315;28;19923;-69
2021/07/08 11:19:32;;;;;;;;;;;;;;;30.95;35.26;101480.84;5114272;28;19946;-69
2021/07/08 11:22:01;;;;;;;;;;;;;;;29.10;36.91;101489.09;5113549;28;19924;-69
2021/07/08 11:24:29;;;;;;;;;;;;;;;29.13;37.97;101491.41;5113986;28;20301;-69
2021/07/08 11:26:56;;;;;;;;;;;;;;;29.88;36.85;101487.44;5113492;28;19923;-69
2021/07/08 11:29:33;;;;;;;;;;;;;;;29.35;37.12;101494.13;5113834;27;19928;-70
2021/07/08 11:32:01;;;;;;;;;;;;;;;30.06;37.25;101481.56;5113748;28;19924;-68
2021/07/08 11:34:28;;;;;;;;;;;;;;;29.09;38.00;101487.44;5113871;28;19924;-68
2021/07/08 11:36:55;;;;;;;;;;;;;;;30.77;35.54;101500.16;5113506;28;19950;-68
2021/07/08 11:39:24;;;;;;;;;;;;;;;31.45;34.43;101492.16;5113861;28;19932;-69
2021/07/08 11:41:51;;;;;;;;;;;;;;;31.64;33.94;101495.91;5113636;28;19927;-68
2021/07/08 11:44:20;;;;;;;;;;;;;;;30.68;34.36;101503.25;5113487;28;19938;-68
2021/07/08 11:46:47;;;;;;;;;;;;;;;29.66;33.69;101485.78;5113180;28;19931;-68
2021/07/08 11:49:17;;;;;;;;;;;;;;;31.42;31.74;101500.66;5113690;28;19931;-68
2021/07/08 11:51:43;;;;;;;;;;;;;;;28.25;34.98;101493.06;5113109;28;19930;-68
2021/07/08 11:54:10;;;;;;;;;;;;;;;28.80;34.24;101485.63;5113072;28;20278;-68
2021/07/08 11:56:37;;;;;;;;;;;;;;;27.32;37.28;101486.97;5113486;28;19924;-69
2021/07/08 11:59:06;;;;;;;;;;;;;;;28.60;35.53;101501.44;5113342;28;19927;-69
2021/07/08 12:01:33;;;;;;;;;;;;;;;28.30;34.56;101490.69;5113231;28;19928;-69
2021/07/08 12:04:00;;;;;;;;;;;;;;;29.40;33.62;101507.78;5113094;28;19946;-70
2021/07/08 12:06:29;;;;;;;;;;;;;;;28.25;34.01;101503.78;5113633;28;19923;-70
2021/07/08 12:08:57;;;;;;;;;;;;;;;29.26;32.91;101496.91;5112658;28;20382;-69
2021/07/08 12:11:29;;;;;;;;;;;;;;;29.23;33.69;101496.44;5113366;28;19947;-70
2021/07/08 12:13:56;;;;;;;;;;;;;;;30.07;31.95;101501.19;5112635;28;19930;-69
2021/07/08 12:16:27;;;;;;;;;;;;;;;29.45;32.64;101506.19;5112748;28;19934;-70
2021/07/08 12:18:54;;;;;;;;;;;;;;;30.03;32.73;101506.13;5113039;28;19928;-69
2021/07/08 12:21:23;;;;;;;;;;;;;;;30.07;32.50;101503.84;5113289;28;19930;-69
2021/07/08 12:23:51;;;;;;;;;;;;;;;27.58;35.49;101509.84;5112546;28;19930;-69
2021/07/08 12:26:22;;;;;;;;;;;;;;;27.61;35.79;101506.81;5112961;28;19923;-70
2021/07/08 12:28:48;;;;;;;;;;;;;;;30.12;32.71;101496.88;5112915;28;20281;-69
2021/07/08 12:31:18;;;;;;;;;;;;;;;29.82;32.22;101503.44;5112852;28;20392;-69
2021/07/08 12:33:53;;;;;;;;;;;;;;;30.08;32.21;101498.31;5113032;28;20396;-70
2021/07/08 12:36:19;;;;;;;;;;;;;;;30.31;32.05;101503.44;5113149;28;19924;-70
2021/07/08 12:38:47;;;;;;;;;;;;;;;29.44;33.76;101501.84;5112535;28;20300;-69
2021/07/08 12:41:16;;;;;;;;;;;;;;;29.23;33.51;101510.69;5113006;28;19932;-69